sensor_id;sensor_type;location;lat;lon;timestamp;pressure;altitude;pressure_sealevel;temperature;humidity
63946;BME280;50122;56.330;43.838;2023-08-06T13:18:11;101029.44;;;47.24;16.41
63946;BME280;50122;56.330;43.838;2023-08-06T13:20:38;101026.09;;;47.22;15.64
63946;BME280;50122;56.330;43.838;2023-08-06T13:23:06;101026.63;;;46.94;16.29
63946;BME280;50122;56.330;43.838;2023-08-06T13:25:33;101021.31;;;46.24;17.00
63946;BME280;50122;56.330;43.838;2023-08-06T13:28:06;101019.31;;;45.74;17.30
63946;BME280;50122;56.330;43.838;2023-08-06T13:30:33;101010.91;;;45.85;16.99
63946;BME280;50122;56.330;43.838;2023-08-06T13:33:03;101007.19;;;45.24;18.04
63946;BME280;50122;56.330;43.838;2023-08-06T13:35:36;101004.63;;;45.48;18.57
63946;BME280;50122;56.330;43.838;2023-08-06T13:38:04;101013.25;;;46.62;16.75
63946;BME280;50122;56.330;43.838;2023-08-06T13:40:34;101009.59;;;46.61;16.58
63946;BME280;50122;56.330;43.838;2023-08-06T13:43:01;101001.81;;;46.88;17.06
63946;BME280;50122;56.330;43.838;2023-08-06T13:45:28;101009.03;;;47.47;17.06
63946;BME280;50122;56.330;43.838;2023-08-06T13:47:58;101010.13;;;47.22;15.51
63946;BME280;50122;56.330;43.838;2023-08-06T13:50:27;101012.47;;;47.39;15.26
63946;BME280;50122;56.330;43.838;2023-08-06T13:53:00;101009.31;;;46.23;16.66
63946;BME280;50122;56.330;43.838;2023-08-06T13:55:27;101005.81;;;45.21;17.27
63946;BME280;50122;56.330;43.838;2023-08-06T13:57:55;101007.50;;;44.30;18.14
63946;BME280;50122;56.330;43.838;2023-08-06T14:00:22;101001.91;;;44.25;19.16
63946;BME280;50122;56.330;43.838;2023-08-06T14:02:49;101001.09;;;44.50;17.86
63946;BME280;50122;56.330;43.838;2023-08-06T14:05:17;100998.78;;;43.90;18.50
63946;BME280;50122;56.330;43.838;2023-08-06T14:07:44;101000.69;;;43.31;20.05
63946;BME280;50122;56.330;43.838;2023-08-06T14:10:11;100999.19;;;43.61;19.51
63946;BME280;50122;56.330;43.838;2023-08-06T14:12:38;100991.06;;;44.49;18.08
63946;BME280;50122;56.330;43.838;2023-08-06T14:15:05;100992.03;;;45.56;16.71
63946;BME280;50122;56.330;43.838;2023-08-06T14:17:32;100999.31;;;46.52;16.13
63946;BME280;50122;56.330;43.838;2023-08-06T14:20:00;101000.63;;;46.30;15.86
63946;BME280;50122;56.330;43.838;2023-08-06T14:22:27;100994.16;;;45.80;16.64
63946;BME280;50122;56.330;43.838;2023-08-06T14:24:54;100989.06;;;45.32;17.44
63946;BME280;50122;56.330;43.838;2023-08-06T14:27:21;100987.41;;;45.15;17.67
63946;BME280;50122;56.330;43.838;2023-08-06T14:29:48;100993.00;;;44.53;18.46
63946;BME280;50122;56.330;43.838;2023-08-06T14:32:15;100992.19;;;44.32;18.90
63946;BME280;50122;56.330;43.838;2023-08-06T14:34:44;100977.13;;;45.05;17.53
63946;BME280;50122;56.330;43.838;2023-08-06T14:37:11;100981.88;;;45.86;17.49
63946;BME280;50122;56.330;43.838;2023-08-06T14:39:38;100983.50;;;45.92;16.74
63946;BME280;50122;56.330;43.838;2023-08-06T14:42:05;100984.25;;;45.53;17.41
63946;BME280;50122;56.330;43.838;2023-08-06T14:44:31;100986.03;;;45.13;17.78
63946;BME280;50122;56.330;43.838;2023-08-06T14:46:58;100988.00;;;43.51;18.89
63946;BME280;50122;56.330;43.838;2023-08-06T14:49:27;100985.44;;;42.09;20.47
63946;BME280;50122;56.330;43.838;2023-08-06T14:51:54;100980.03;;;40.29;21.60
63946;BME280;50122;56.330;43.838;2023-08-06T14:54:21;100979.56;;;38.49;24.29
63946;BME280;50122;56.330;43.838;2023-08-06T14:56:49;100992.53;;;38.18;25.74
63946;BME280;50122;56.330;43.838;2023-08-06T14:59:16;100982.59;;;37.99;25.38
63946;BME280;50122;56.330;43.838;2023-08-06T15:01:42;100981.34;;;37.20;26.30
63946;BME280;50122;56.330;43.838;2023-08-06T15:04:09;100989.03;;;36.29;26.71
63946;BME280;50122;56.330;43.838;2023-08-06T15:06:36;100995.63;;;35.70;28.65
63946;BME280;50122;56.330;43.838;2023-08-06T15:09:03;100981.94;;;36.47;28.07
63946;BME280;50122;56.330;43.838;2023-08-06T15:11:33;100985.25;;;37.13;27.24
63946;BME280;50122;56.330;43.838;2023-08-06T15:14:00;100989.56;;;36.77;28.12
63946;BME280;50122;56.330;43.838;2023-08-06T15:16:27;100983.97;;;36.33;28.30
63946;BME280;50122;56.330;43.838;2023-08-06T15:18:56;100991.66;;;37.07;26.70
63946;BME280;50122;56.330;43.838;2023-08-06T15:21:23;100991.59;;;37.39;27.18
63946;BME280;50122;56.330;43.838;2023-08-06T15:23:50;100991.44;;;36.83;28.45
63946;BME280;50122;56.330;43.838;2023-08-06T15:26:17;100992.34;;;35.99;28.97
63946;BME280;50122;56.330;43.838;2023-08-06T15:28:44;100998.47;;;35.36;29.04
63946;BME280;50122;56.330;43.838;2023-08-06T15:31:11;101000.13;;;34.70;30.35
63946;BME280;50122;56.330;43.838;2023-08-06T15:33:37;101008.34;;;33.95;32.81
63946;BME280;50122;56.330;43.838;2023-08-06T15:36:04;100996.94;;;33.21;33.68
63946;BME280;50122;56.330;43.838;2023-08-06T15:38:31;101005.41;;;32.77;36.01
63946;BME280;50122;56.330;43.838;2023-08-06T15:40:59;101001.06;;;32.46;35.91
63946;BME280;50122;56.330;43.838;2023-08-06T15:43:26;101008.47;;;32.30;35.61
63946;BME280;50122;56.330;43.838;2023-08-06T15:45:55;100999.56;;;31.92;37.59
63946;BME280;50122;56.330;43.838;2023-08-06T15:48:31;101006.44;;;31.43;39.59
63946;BME280;50122;56.330;43.838;2023-08-06T15:50:59;101002.75;;;30.97;40.37
63946;BME280;50122;56.330;43.838;2023-08-06T15:53:28;101001.69;;;30.60;39.84
63946;BME280;50122;56.330;43.838;2023-08-06T15:55:55;101004.56;;;30.36;41.27
63946;BME280;50122;56.330;43.838;2023-08-06T15:58:22;101010.47;;;30.16;41.91
63946;BME280;50122;56.330;43.838;2023-08-06T16:00:54;101004.97;;;29.93;43.27
63946;BME280;50122;56.330;43.838;2023-08-06T16:03:23;101010.44;;;29.76;41.98
63946;BME280;50122;56.330;43.838;2023-08-06T16:05:50;101004.44;;;29.81;42.83
63946;BME280;50122;56.330;43.838;2023-08-06T16:08:17;101010.63;;;29.83;42.45
63946;BME280;50122;56.330;43.838;2023-08-06T16:10:49;101012.13;;;29.77;43.28
63946;BME280;50122;56.330;43.838;2023-08-06T16:13:16;101012.13;;;29.77;44.11
63946;BME280;50122;56.330;43.838;2023-08-06T16:15:43;101010.78;;;29.73;44.13
63946;BME280;50122;56.330;43.838;2023-08-06T16:18:10;101009.13;;;29.64;45.41
63946;BME280;50122;56.330;43.838;2023-08-06T16:20:42;101011.34;;;29.52;45.64
63946;BME280;50122;56.330;43.838;2023-08-06T16:23:11;101010.38;;;29.37;46.56
63946;BME280;50122;56.330;43.838;2023-08-06T16:25:38;101017.19;;;29.24;47.38
63946;BME280;50122;56.330;43.838;2023-08-06T16:28:06;101012.94;;;29.05;47.70
63946;BME280;50122;56.330;43.838;2023-08-06T16:30:46;101018.72;;;28.86;48.08
63946;BME280;50122;56.330;43.838;2023-08-06T16:33:13;101016.00;;;28.69;48.39
63946;BME280;50122;56.330;43.838;2023-08-06T16:35:40;101022.22;;;28.53;49.41
63946;BME280;50122;56.330;43.838;2023-08-06T16:38:09;101017.94;;;28.42;50.48
63946;BME280;50122;56.330;43.838;2023-08-06T16:40:37;101016.75;;;28.29;51.40
63946;BME280;50122;56.330;43.838;2023-08-06T16:43:04;101014.84;;;28.21;51.42
63946;BME280;50122;56.330;43.838;2023-08-06T16:45:30;101015.13;;;28.01;51.63
63946;BME280;50122;56.330;43.838;2023-08-06T16:48:06;101022.16;;;27.86;52.57
63946;BME280;50122;56.330;43.838;2023-08-06T16:50:41;101024.97;;;27.68;53.69
63946;BME280;50122;56.330;43.838;2023-08-06T16:53:20;101028.44;;;27.52;53.24
63946;BME280;50122;56.330;43.838;2023-08-06T16:55:49;101027.53;;;27.43;54.30
63946;BME280;50122;56.330;43.838;2023-08-06T16:58:20;101032.63;;;27.28;54.40
63946;BME280;50122;56.330;43.838;2023-08-06T17:00:47;101030.19;;;27.17;54.95
63946;BME280;50122;56.330;43.838;2023-08-06T17:03:18;101025.47;;;27.01;55.19
63946;BME280;50122;56.330;43.838;2023-08-06T17:05:51;101028.75;;;26.86;55.20
63946;BME280;50122;56.330;43.838;2023-08-06T17:08:27;101030.84;;;26.75;55.83
63946;BME280;50122;56.330;43.838;2023-08-06T17:11:02;101029.03;;;26.65;56.32
63946;BME280;50122;56.330;43.838;2023-08-06T17:13:30;101031.97;;;26.54;57.73
63946;BME280;50122;56.330;43.838;2023-08-06T17:15:57;101037.44;;;26.44;57.76
63946;BME280;50122;56.330;43.838;2023-08-06T17:18:25;101036.13;;;26.30;57.70
63946;BME280;50122;56.330;43.838;2023-08-06T17:20:52;101032.59;;;26.20;57.13
63946;BME280;50122;56.330;43.838;2023-08-06T17:23:48;101027.84;;;26.04;57.70
63946;BME280;50122;56.330;43.838;2023-08-06T17:27:10;101034.00;;;25.96;57.72
63946;BME280;50122;56.330;43.838;2023-08-06T17:30:02;101025.91;;;25.87;59.01
63946;BME280;50122;56.330;43.838;2023-08-06T17:32:54;101012.47;;;25.67;58.77
63946;BME280;50122;56.330;43.838;2023-08-06T17:35:35;101025.56;;;25.62;59.75
63946;BME280;50122;56.330;43.838;2023-08-06T17:38:16;101023.03;;;25.51;59.93
63946;BME280;50122;56.330;43.838;2023-08-06T17:41:09;101026.34;;;25.44;60.65
63946;BME280;50122;56.330;43.838;2023-08-06T17:43:51;101027.38;;;25.34;60.90
63946;BME280;50122;56.330;43.838;2023-08-06T17:46:20;101034.19;;;25.28;61.84
63946;BME280;50122;56.330;43.838;2023-08-06T17:49:17;101031.50;;;25.18;62.08
63946;BME280;50122;56.330;43.838;2023-08-06T17:51:49;101018.97;;;25.07;62.45
63946;BME280;50122;56.330;43.838;2023-08-06T17:54:17;101023.97;;;25.02;62.03
63946;BME280;50122;56.330;43.838;2023-08-06T17:56:53;101021.13;;;24.94;62.92
63946;BME280;50122;56.330;43.838;2023-08-06T18:02:57;101022.97;;;24.74;63.04
63946;BME280;50122;56.330;43.838;2023-08-06T18:05:27;101029.66;;;24.70;63.60
63946;BME280;50122;56.330;43.838;2023-08-06T18:08:01;101026.53;;;24.65;63.93
63946;BME280;50122;56.330;43.838;2023-08-06T18:10:31;101012.56;;;24.59;64.59
63946;BME280;50122;56.330;43.838;2023-08-06T18:12:58;101012.97;;;24.55;64.79
63946;BME280;50122;56.330;43.838;2023-08-06T18:15:25;101021.66;;;24.49;64.66
63946;BME280;50122;56.330;43.838;2023-08-06T18:17:54;101029.72;;;24.39;64.95
63946;BME280;50122;56.330;43.838;2023-08-06T18:20:22;101017.91;;;24.30;65.22
63946;BME280;50122;56.330;43.838;2023-08-06T18:22:49;101023.00;;;24.23;65.51
63946;BME280;50122;56.330;43.838;2023-08-06T18:25:17;101025.56;;;24.15;66.15
63946;BME280;50122;56.330;43.838;2023-08-06T18:27:44;101023.53;;;24.07;65.90
63946;BME280;50122;56.330;43.838;2023-08-06T18:30:11;101024.09;;;24.01;65.84
63946;BME280;50122;56.330;43.838;2023-08-06T18:32:38;101022.09;;;23.93;66.26
63946;BME280;50122;56.330;43.838;2023-08-06T18:35:05;101034.41;;;23.86;67.02
63946;BME280;50122;56.330;43.838;2023-08-06T18:37:32;101025.81;;;23.81;67.10
63946;BME280;50122;56.330;43.838;2023-08-06T18:40:07;101022.56;;;23.78;67.28
63946;BME280;50122;56.330;43.838;2023-08-06T18:42:34;101026.50;;;23.73;66.84
63946;BME280;50122;56.330;43.838;2023-08-06T18:45:01;101031.31;;;23.70;67.74
63946;BME280;50122;56.330;43.838;2023-08-06T18:47:28;101025.47;;;23.65;68.12
63946;BME280;50122;56.330;43.838;2023-08-06T18:49:55;101017.06;;;23.58;68.01
63946;BME280;50122;56.330;43.838;2023-08-06T18:52:21;101020.56;;;23.49;68.57
63946;BME280;50122;56.330;43.838;2023-08-06T18:54:48;101025.75;;;23.40;68.63
63946;BME280;50122;56.330;43.838;2023-08-06T18:57:15;101019.91;;;23.35;68.84
63946;BME280;50122;56.330;43.838;2023-08-06T18:59:42;101023.97;;;23.30;68.54
63946;BME280;50122;56.330;43.838;2023-08-06T19:02:10;101022.78;;;23.22;69.09
63946;BME280;50122;56.330;43.838;2023-08-06T19:04:37;101018.34;;;23.12;69.31
63946;BME280;50122;56.330;43.838;2023-08-06T19:07:04;101021.66;;;23.04;70.11
63946;BME280;50122;56.330;43.838;2023-08-06T19:09:31;101018.63;;;22.97;70.24
63946;BME280;50122;56.330;43.838;2023-08-06T19:11:58;101024.69;;;22.89;70.61
63946;BME280;50122;56.330;43.838;2023-08-06T19:14:25;101023.94;;;22.87;72.04
63946;BME280;50122;56.330;43.838;2023-08-06T19:16:54;101028.75;;;22.84;72.39
63946;BME280;50122;56.330;43.838;2023-08-06T19:19:25;101021.91;;;22.80;72.30
63946;BME280;50122;56.330;43.838;2023-08-06T19:24:20;101013.19;;;22.76;72.98
63946;BME280;50122;56.330;43.838;2023-08-06T19:26:46;101017.03;;;22.74;73.41
63946;BME280;50122;56.330;43.838;2023-08-06T19:29:13;101017.50;;;22.67;74.02
63946;BME280;50122;56.330;43.838;2023-08-06T19:31:40;101018.75;;;22.63;74.39
63946;BME280;50122;56.330;43.838;2023-08-06T19:34:25;101021.13;;;22.57;74.27
63946;BME280;50122;56.330;43.838;2023-08-06T19:36:52;101020.63;;;22.51;74.82
63946;BME280;50122;56.330;43.838;2023-08-06T19:39:18;101018.59;;;22.44;74.69
63946;BME280;50122;56.330;43.838;2023-08-06T19:41:45;101019.81;;;22.40;75.08
63946;BME280;50122;56.330;43.838;2023-08-06T19:44:12;101029.75;;;22.39;75.63
63946;BME280;50122;56.330;43.838;2023-08-06T19:46:38;101025.31;;;22.38;75.97
63946;BME280;50122;56.330;43.838;2023-08-06T19:49:05;101022.00;;;22.34;75.69
63946;BME280;50122;56.330;43.838;2023-08-06T19:51:33;101019.69;;;22.30;75.77
63946;BME280;50122;56.330;43.838;2023-08-06T19:54:03;101024.47;;;22.26;75.95
63946;BME280;50122;56.330;43.838;2023-08-06T19:56:30;101028.38;;;22.22;76.12
63946;BME280;50122;56.330;43.838;2023-08-06T19:58:57;101020.81;;;22.16;76.18
63946;BME280;50122;56.330;43.838;2023-08-06T20:01:23;101028.28;;;22.12;76.61
63946;BME280;50122;56.330;43.838;2023-08-06T20:03:55;101019.59;;;22.09;76.67
63946;BME280;50122;56.330;43.838;2023-08-06T20:06:22;101019.09;;;22.03;76.18
63946;BME280;50122;56.330;43.838;2023-08-06T20:08:56;101014.81;;;22.01;76.41
63946;BME280;50122;56.330;43.838;2023-08-06T20:11:23;101007.97;;;21.97;76.82
63946;BME280;50122;56.330;43.838;2023-08-06T20:13:49;101018.75;;;21.97;76.70
63946;BME280;50122;56.330;43.838;2023-08-06T20:16:16;101021.56;;;21.95;77.09
63946;BME280;50122;56.330;43.838;2023-08-06T20:18:44;101019.75;;;21.96;76.96
63946;BME280;50122;56.330;43.838;2023-08-06T20:21:11;101021.81;;;21.92;77.46
63946;BME280;50122;56.330;43.838;2023-08-06T20:23:37;101023.03;;;21.88;77.50
63946;BME280;50122;56.330;43.838;2023-08-06T20:26:04;101022.56;;;21.83;77.55
63946;BME280;50122;56.330;43.838;2023-08-06T20:28:31;101026.34;;;21.80;77.23
63946;BME280;50122;56.330;43.838;2023-08-06T20:31:00;101026.72;;;21.76;77.54
63946;BME280;50122;56.330;43.838;2023-08-06T20:33:27;101030.63;;;21.72;77.94
63946;BME280;50122;56.330;43.838;2023-08-06T20:35:56;101026.56;;;21.66;78.16
63946;BME280;50122;56.330;43.838;2023-08-06T20:38:25;101029.50;;;21.63;78.09
63946;BME280;50122;56.330;43.838;2023-08-06T20:40:52;101027.19;;;21.58;77.94
63946;BME280;50122;56.330;43.838;2023-08-06T20:43:24;101022.06;;;21.55;78.34
63946;BME280;50122;56.330;43.838;2023-08-06T20:45:56;101023.88;;;21.55;78.23
63946;BME280;50122;56.330;43.838;2023-08-06T20:48:24;101024.97;;;21.52;78.17
63946;BME280;50122;56.330;43.838;2023-08-06T20:50:51;101027.75;;;21.50;78.60
63946;BME280;50122;56.330;43.838;2023-08-06T20:53:18;101026.91;;;21.50;78.78
63946;BME280;50122;56.330;43.838;2023-08-06T20:55:57;101028.09;;;21.46;78.37
63946;BME280;50122;56.330;43.838;2023-08-06T20:58:24;101028.22;;;21.44;78.80
63946;BME280;50122;56.330;43.838;2023-08-06T21:00:53;101032.25;;;21.39;79.16
63946;BME280;50122;56.330;43.838;2023-08-06T21:03:23;101030.78;;;21.34;79.34
63946;BME280;50122;56.330;43.838;2023-08-06T21:06:06;101027.84;;;21.26;79.00
63946;BME280;50122;56.330;43.838;2023-08-06T21:08:35;101023.56;;;21.24;78.90
63946;BME280;50122;56.330;43.838;2023-08-06T21:11:03;101024.63;;;21.21;78.76
63946;BME280;50122;56.330;43.838;2023-08-06T21:13:30;101028.28;;;21.20;79.17
63946;BME280;50122;56.330;43.838;2023-08-06T21:16:02;101030.13;;;21.20;79.46
63946;BME280;50122;56.330;43.838;2023-08-06T21:18:36;101030.97;;;21.20;79.75
63946;BME280;50122;56.330;43.838;2023-08-06T21:21:03;101032.19;;;21.16;79.81
63946;BME280;50122;56.330;43.838;2023-08-06T21:23:32;101037.91;;;21.11;80.03
63946;BME280;50122;56.330;43.838;2023-08-06T21:26:01;101042.81;;;21.06;80.07
63946;BME280;50122;56.330;43.838;2023-08-06T21:28:32;101047.53;;;21.03;80.00
63946;BME280;50122;56.330;43.838;2023-08-06T21:31:00;101041.03;;;20.94;80.21
63946;BME280;50122;56.330;43.838;2023-08-06T21:33:29;101043.59;;;20.95;80.12
63946;BME280;50122;56.330;43.838;2023-08-06T21:35:58;101043.84;;;20.92;80.06
63946;BME280;50122;56.330;43.838;2023-08-06T21:38:32;101049.34;;;20.91;80.54
63946;BME280;50122;56.330;43.838;2023-08-06T21:41:13;101039.91;;;20.85;80.52
63946;BME280;50122;56.330;43.838;2023-08-06T21:43:42;101046.13;;;20.86;80.95
63946;BME280;50122;56.330;43.838;2023-08-06T21:46:15;101047.84;;;20.87;81.23
63946;BME280;50122;56.330;43.838;2023-08-06T21:48:44;101047.84;;;20.87;81.16
63946;BME280;50122;56.330;43.838;2023-08-06T21:51:17;101044.56;;;20.83;81.22
63946;BME280;50122;56.330;43.838;2023-08-06T21:53:47;101038.66;;;20.78;81.56
63946;BME280;50122;56.330;43.838;2023-08-06T21:56:14;101044.16;;;20.76;81.48
63946;BME280;50122;56.330;43.838;2023-08-06T21:58:49;101047.19;;;20.72;81.55
63946;BME280;50122;56.330;43.838;2023-08-06T22:01:20;101045.69;;;20.68;81.07
63946;BME280;50122;56.330;43.838;2023-08-06T22:03:47;101039.63;;;20.64;81.45
63946;BME280;50122;56.330;43.838;2023-08-06T22:06:15;101046.13;;;20.61;81.75
63946;BME280;50122;56.330;43.838;2023-08-06T22:08:44;101038.50;;;20.55;81.67
63946;BME280;50122;56.330;43.838;2023-08-06T22:11:11;101037.22;;;20.48;81.82
63946;BME280;50122;56.330;43.838;2023-08-06T22:13:38;101035.78;;;20.44;81.65
63946;BME280;50122;56.330;43.838;2023-08-06T22:16:06;101036.97;;;20.40;81.63
63946;BME280;50122;56.330;43.838;2023-08-06T22:18:36;101040.63;;;20.39;81.79
63946;BME280;50122;56.330;43.838;2023-08-06T22:21:03;101041.56;;;20.38;82.35
63946;BME280;50122;56.330;43.838;2023-08-06T22:23:30;101039.53;;;20.41;82.42
63946;BME280;50122;56.330;43.838;2023-08-06T22:25:57;101042.09;;;20.43;82.77
63946;BME280;50122;56.330;43.838;2023-08-06T22:28:24;101032.56;;;20.39;82.84
63946;BME280;50122;56.330;43.838;2023-08-06T22:30:52;101039.88;;;20.37;83.15
63946;BME280;50122;56.330;43.838;2023-08-06T22:33:19;101039.47;;;20.30;83.16
63946;BME280;50122;56.330;43.838;2023-08-06T22:35:48;101046.66;;;20.29;83.14
63946;BME280;50122;56.330;43.838;2023-08-06T22:38:18;101046.97;;;20.25;83.48
63946;BME280;50122;56.330;43.838;2023-08-06T22:40:44;101056.13;;;20.22;83.57
63946;BME280;50122;56.330;43.838;2023-08-06T22:43:11;101051.19;;;20.16;83.17
63946;BME280;50122;56.330;43.838;2023-08-06T22:45:38;101052.06;;;20.17;83.22
63946;BME280;50122;56.330;43.838;2023-08-06T22:48:05;101053.13;;;20.14;83.16
63946;BME280;50122;56.330;43.838;2023-08-06T22:50:31;101055.06;;;20.12;83.42
63946;BME280;50122;56.330;43.838;2023-08-06T22:52:58;101054.22;;;20.11;83.67
63946;BME280;50122;56.330;43.838;2023-08-06T22:55:25;101063.97;;;20.12;83.78
63946;BME280;50122;56.330;43.838;2023-08-06T22:58:12;101065.78;;;20.12;83.71
63946;BME280;50122;56.330;43.838;2023-08-06T23:00:40;101060.53;;;20.10;84.00
63946;BME280;50122;56.330;43.838;2023-08-06T23:03:07;101057.13;;;20.08;84.21
63946;BME280;50122;56.330;43.838;2023-08-06T23:05:39;101057.34;;;20.05;83.97
63946;BME280;50122;56.330;43.838;2023-08-06T23:08:07;101059.38;;;20.02;84.07
63946;BME280;50122;56.330;43.838;2023-08-06T23:10:34;101057.66;;;20.01;84.18
63946;BME280;50122;56.330;43.838;2023-08-06T23:13:01;101057.66;;;20.01;84.35
63946;BME280;50122;56.330;43.838;2023-08-06T23:15:29;101065.94;;;19.98;84.25
63946;BME280;50122;56.330;43.838;2023-08-06T23:17:55;101068.81;;;19.94;84.59
63946;BME280;50122;56.330;43.838;2023-08-06T23:20:23;101066.34;;;19.91;84.38
63946;BME280;50122;56.330;43.838;2023-08-06T23:22:50;101062.94;;;19.89;84.67
63946;BME280;50122;56.330;43.838;2023-08-06T23:25:16;101064.75;;;19.89;85.04
63946;BME280;50122;56.330;43.838;2023-08-06T23:27:43;101065.63;;;19.89;85.08
63946;BME280;50122;56.330;43.838;2023-08-06T23:30:10;101063.91;;;19.88;85.38
63946;BME280;50122;56.330;43.838;2023-08-06T23:32:37;101066.56;;;19.88;85.54
63946;BME280;50122;56.330;43.838;2023-08-06T23:35:04;101062.16;;;19.87;85.80
63946;BME280;50122;56.330;43.838;2023-08-06T23:37:31;101068.53;;;19.86;85.61
63946;BME280;50122;56.330;43.838;2023-08-06T23:39:59;101066.06;;;19.83;85.58
63946;BME280;50122;56.330;43.838;2023-08-06T23:42:27;101063.56;;;19.80;85.91
63946;BME280;50122;56.330;43.838;2023-08-06T23:44:55;101065.59;;;19.76;85.65
63946;BME280;50122;56.330;43.838;2023-08-06T23:47:22;101070.31;;;19.73;85.28
63946;BME280;50122;56.330;43.838;2023-08-06T23:49:48;101071.41;;;19.70;85.72
63946;BME280;50122;56.330;43.838;2023-08-06T23:52:15;101069.78;;;19.68;86.04
63946;BME280;50122;56.330;43.838;2023-08-06T23:54:42;101074.25;;;19.67;86.19
63946;BME280;50122;56.330;43.838;2023-08-06T23:57:08;101071.81;;;19.64;86.08
63946;BME280;50122;56.330;43.838;2023-08-06T23:59:35;101072.03;;;19.61;85.79
